createdAt,value
2018-09-23T00:02:18.939Z,9.40
2018-09-23T00:04:47.482Z,9.40
2018-09-23T00:07:16.031Z,9.40
2018-09-23T00:09:44.555Z,9.40
2018-09-23T00:12:14.007Z,9.30
2018-09-23T00:14:42.527Z,9.30
2018-09-23T00:17:11.047Z,9.20
2018-09-23T00:19:39.563Z,9.30
2018-09-23T00:22:08.128Z,9.30
2018-09-23T00:24:36.674Z,9.30
2018-09-23T00:27:05.239Z,9.20
2018-09-23T00:29:39.063Z,9.10
2018-09-23T00:32:07.617Z,9.10
2018-09-23T00:34:36.142Z,9.10
2018-09-23T00:37:04.663Z,9.10
2018-09-23T00:39:33.228Z,9.10
2018-09-23T00:42:01.795Z,9.10
2018-09-23T00:44:30.335Z,9.10
2018-09-23T00:46:58.867Z,9.20
2018-09-23T00:49:27.391Z,9.20
2018-09-23T00:51:56.055Z,9.20
2018-09-23T00:54:24.952Z,9.20
2018-09-23T00:56:53.483Z,9.20
2018-09-23T00:59:22.014Z,9.20
2018-09-23T01:01:50.619Z,9.10
2018-09-23T01:04:19.151Z,9.10
2018-09-23T01:06:47.710Z,9.10
2018-09-23T01:09:16.243Z,9.10
2018-09-23T01:11:44.957Z,9.10
2018-09-23T01:14:13.797Z,9.10
2018-09-23T01:16:42.326Z,9.00
2018-09-23T01:19:10.875Z,9.00
2018-09-23T01:21:39.424Z,9.10
2018-09-23T01:24:08.004Z,9.00
2018-09-23T01:26:36.555Z,9.00
2018-09-23T01:29:05.171Z,9.10
2018-09-23T01:31:33.709Z,9.10
2018-09-23T01:34:02.260Z,9.10
2018-09-23T01:36:30.840Z,9.10
2018-09-23T01:38:59.358Z,9.00
2018-09-23T01:41:28.216Z,9.00
2018-09-23T01:43:56.750Z,9.10
2018-09-23T01:46:25.271Z,9.10
2018-09-23T01:48:53.803Z,9.10
2018-09-23T01:51:22.346Z,9.10
2018-09-23T01:53:50.877Z,9.00
2018-09-23T01:56:19.411Z,9.10
2018-09-23T01:58:48.127Z,9.00
2018-09-23T02:01:16.685Z,9.00
2018-09-23T02:03:45.222Z,9.10
2018-09-23T02:06:13.983Z,9.10
2018-09-23T02:08:42.503Z,9.10
2018-09-23T02:11:11.110Z,9.10
2018-09-23T02:13:39.638Z,9.10
2018-09-23T02:16:08.354Z,9.20
2018-09-23T02:18:36.891Z,9.10
2018-09-23T02:21:05.503Z,9.10
2018-09-23T02:23:34.036Z,9.20
2018-09-23T02:26:02.567Z,9.20
2018-09-23T02:28:31.270Z,9.20
2018-09-23T02:30:59.789Z,9.20
2018-09-23T02:33:28.353Z,9.20
2018-09-23T02:35:56.905Z,9.20
2018-09-23T02:38:25.433Z,9.30
2018-09-23T02:40:54.059Z,9.30
2018-09-23T02:43:22.604Z,9.30
2018-09-23T02:45:51.172Z,9.40
2018-09-23T02:48:19.803Z,9.40
2018-09-23T02:50:48.370Z,9.30
2018-09-23T02:53:17.379Z,9.40
2018-09-23T02:55:45.923Z,9.40
2018-09-23T02:58:14.459Z,9.30
2018-09-23T03:00:43.017Z,9.40
2018-09-23T03:03:11.545Z,9.30
2018-09-23T03:05:40.115Z,9.30
2018-09-23T03:08:08.780Z,9.30
2018-09-23T03:10:37.439Z,9.30
2018-09-23T03:13:06.055Z,9.30
2018-09-23T03:15:34.630Z,9.40
2018-09-23T03:18:03.181Z,9.40
2018-09-23T03:20:31.727Z,9.40
2018-09-23T03:23:00.304Z,9.40
2018-09-23T03:25:28.842Z,9.40
2018-09-23T03:27:57.399Z,9.50
2018-09-23T03:30:25.927Z,9.50
2018-09-23T03:32:54.514Z,9.50
2018-09-23T03:35:23.051Z,9.40
2018-09-23T03:37:51.943Z,9.40
2018-09-23T03:40:20.499Z,9.40
2018-09-23T03:42:49.097Z,9.40
2018-09-23T03:45:17.931Z,9.40
2018-09-23T03:47:46.623Z,9.40
2018-09-23T03:50:15.167Z,9.40
2018-09-23T03:52:43.806Z,9.40
2018-09-23T03:55:12.395Z,9.50
2018-09-23T03:57:40.930Z,9.40
2018-09-23T04:00:09.716Z,9.40
2018-09-23T04:02:38.580Z,9.40
2018-09-23T04:05:07.143Z,9.40
2018-09-23T04:07:35.672Z,9.40
2018-09-23T04:10:04.271Z,9.40
2018-09-23T04:12:32.842Z,9.40
2018-09-23T04:15:01.406Z,9.40
2018-09-23T04:17:29.943Z,9.40
2018-09-23T04:19:58.531Z,9.40
2018-09-23T04:22:27.094Z,9.40
2018-09-23T04:24:55.625Z,9.40
2018-09-23T04:27:24.159Z,9.40
2018-09-23T04:29:52.926Z,9.30
2018-09-23T04:32:21.547Z,9.30
2018-09-23T04:34:50.085Z,9.30
2018-09-23T04:37:18.899Z,9.30
2018-09-23T04:39:47.420Z,9.30
2018-09-23T04:42:15.959Z,9.30
2018-09-23T04:44:44.493Z,9.30
2018-09-23T04:47:13.027Z,9.30
2018-09-23T04:49:41.574Z,9.30
2018-09-23T04:52:10.122Z,9.30
2018-09-23T04:54:39.044Z,9.30
2018-09-23T04:57:07.571Z,9.30
2018-09-23T04:59:36.102Z,9.30
2018-09-23T05:02:04.638Z,9.30
2018-09-23T05:04:33.166Z,9.30
2018-09-23T05:07:02.106Z,9.30
2018-09-23T05:09:30.654Z,9.30
2018-09-23T05:11:59.179Z,9.30
2018-09-23T05:14:27.866Z,9.30
2018-09-23T05:16:56.455Z,9.30
2018-09-23T05:19:25.027Z,9.40
2018-09-23T05:21:53.650Z,9.30
2018-09-23T05:24:22.199Z,9.40
2018-09-23T05:26:50.756Z,9.40
2018-09-23T05:29:19.295Z,9.40
2018-09-23T05:31:47.833Z,9.30
2018-09-23T05:34:16.386Z,9.30
2018-09-23T05:36:45.316Z,9.30
2018-09-23T05:39:13.848Z,9.40
2018-09-23T05:41:42.393Z,9.40
2018-09-23T05:44:10.948Z,9.40
2018-09-23T05:46:39.938Z,9.40
2018-09-23T05:49:09.080Z,9.40
2018-09-23T05:51:37.619Z,9.50
2018-09-23T05:54:06.169Z,9.50
2018-09-23T05:56:35.064Z,9.40
2018-09-23T05:59:03.737Z,9.50
2018-09-23T06:01:32.264Z,9.50
2018-09-23T06:04:00.811Z,9.60
2018-09-23T06:06:29.343Z,9.50
2018-09-23T06:08:58.476Z,9.60
2018-09-23T06:11:27.075Z,9.60
2018-09-23T06:13:55.607Z,9.60
2018-09-23T06:16:24.147Z,9.60
2018-09-23T06:18:52.811Z,9.60
2018-09-23T06:21:21.467Z,9.70
2018-09-23T06:23:50.248Z,9.70
2018-09-23T06:26:19.002Z,9.70
2018-09-23T06:28:47.531Z,9.70
2018-09-23T06:31:16.152Z,9.70
2018-09-23T06:33:44.679Z,9.80
2018-09-23T06:36:13.201Z,9.80
2018-09-23T06:38:42.057Z,9.90
2018-09-23T06:41:10.575Z,9.90
2018-09-23T06:43:39.103Z,9.90
2018-09-23T06:46:08.119Z,10.00
2018-09-23T06:48:36.678Z,10.00
2018-09-23T06:51:05.858Z,10.10
2018-09-23T06:53:34.850Z,10.10
2018-09-23T06:56:03.564Z,10.20
2018-09-23T06:58:32.097Z,10.30
2018-09-23T07:01:00.661Z,10.30
2018-09-23T07:03:29.223Z,10.40
2018-09-23T07:05:57.822Z,10.50
2018-09-23T07:08:26.514Z,10.60
2018-09-23T07:10:55.049Z,10.60
2018-09-23T07:13:23.596Z,10.70
2018-09-23T07:15:52.361Z,10.80
2018-09-23T07:18:20.900Z,10.90
2018-09-23T07:20:49.481Z,10.90
2018-09-23T07:23:18.031Z,10.90
2018-09-23T07:25:46.554Z,11.10
2018-09-23T07:28:15.101Z,11.20
2018-09-23T07:30:43.730Z,11.20
2018-09-23T07:33:12.739Z,11.20
2018-09-23T07:35:41.286Z,11.30
2018-09-23T07:38:09.821Z,11.40
2018-09-23T07:40:38.362Z,11.50
2018-09-23T07:43:06.953Z,11.70
2018-09-23T07:45:35.811Z,12.00
